createdAt,value
2023-05-19T00:01:19.650Z,38.18
2023-05-19T00:03:54.427Z,38.46
2023-05-19T00:06:31.911Z,38.50
2023-05-19T00:08:59.105Z,38.54
2023-05-19T00:11:28.525Z,38.39
2023-05-19T00:13:56.478Z,38.34
2023-05-19T00:16:24.307Z,38.40
2023-05-19T00:18:52.010Z,38.24
2023-05-19T00:21:19.229Z,38.25
2023-05-19T00:23:46.296Z,38.31
2023-05-19T00:26:13.358Z,38.34
2023-05-19T00:28:42.010Z,38.36
2023-05-19T00:31:09.432Z,38.41
2023-05-19T00:33:36.802Z,38.43
2023-05-19T00:36:04.208Z,38.46
2023-05-19T00:38:31.947Z,38.64
2023-05-19T00:40:59.788Z,38.93
2023-05-19T00:43:27.033Z,38.85
2023-05-19T00:45:54.091Z,38.95
2023-05-19T00:48:21.956Z,39.02
2023-05-19T00:50:49.675Z,39.23
2023-05-19T00:53:17.934Z,39.40
2023-05-19T00:55:45.104Z,39.36
2023-05-19T00:58:12.406Z,39.55
2023-05-19T01:00:40.082Z,39.50
2023-05-19T01:03:13.390Z,39.58
2023-05-19T01:05:47.808Z,39.72
2023-05-19T01:08:14.949Z,39.88
2023-05-19T01:10:42.069Z,40.09
2023-05-19T01:13:09.686Z,40.21
2023-05-19T01:15:52.657Z,40.20
2023-05-19T01:18:23.443Z,40.36
2023-05-19T01:21:17.853Z,40.52
2023-05-19T01:24:03.983Z,40.84
2023-05-19T01:26:37.302Z,41.05
2023-05-19T01:29:19.450Z,41.30
2023-05-19T01:31:48.209Z,41.39
2023-05-19T01:34:15.247Z,41.50
2023-05-19T01:36:45.117Z,41.44
2023-05-19T01:39:13.142Z,41.46
2023-05-19T01:41:40.924Z,41.60
2023-05-19T01:44:09.181Z,41.57
2023-05-19T01:46:36.736Z,41.61
2023-05-19T01:49:03.761Z,41.55
2023-05-19T01:51:31.659Z,41.70
2023-05-19T01:53:59.258Z,41.77
2023-05-19T01:56:37.999Z,42.01
2023-05-19T01:59:13.657Z,42.14
2023-05-19T02:01:53.269Z,42.06
2023-05-19T02:04:40.175Z,42.25
2023-05-19T02:07:15.960Z,42.58
2023-05-19T02:10:05.439Z,42.67
2023-05-19T02:12:37.777Z,42.68
2023-05-19T02:15:05.373Z,42.93
2023-05-19T02:17:36.422Z,43.14
2023-05-19T02:20:04.767Z,43.14
2023-05-19T02:22:33.530Z,43.34
2023-05-19T02:25:00.623Z,43.52
2023-05-19T02:27:27.737Z,43.84
2023-05-19T02:29:57.780Z,43.92
2023-05-19T02:32:24.846Z,44.16
2023-05-19T02:34:53.457Z,44.32
2023-05-19T02:37:23.980Z,44.65
2023-05-19T02:39:51.421Z,44.72
2023-05-19T02:42:18.502Z,44.85
2023-05-19T02:44:46.371Z,45.25
2023-05-19T02:47:14.043Z,45.33
2023-05-19T02:49:41.299Z,45.82
2023-05-19T02:52:08.351Z,46.01
2023-05-19T02:54:35.613Z,46.54
2023-05-19T02:57:02.618Z,46.60
2023-05-19T02:59:29.857Z,46.64
2023-05-19T03:02:01.074Z,47.04
2023-05-19T03:04:31.792Z,47.25
2023-05-19T03:06:58.870Z,47.37
2023-05-19T03:09:27.320Z,47.36
2023-05-19T03:11:54.363Z,47.47
2023-05-19T03:14:24.356Z,47.54
2023-05-19T03:16:51.743Z,47.63
2023-05-19T03:19:18.971Z,47.91
2023-05-19T03:21:47.619Z,48.09
2023-05-19T03:24:16.361Z,48.18
2023-05-19T03:26:43.418Z,48.36
2023-05-19T03:29:11.628Z,48.55
2023-05-19T03:31:39.752Z,48.56
2023-05-19T03:34:06.907Z,48.67
2023-05-19T03:36:40.022Z,48.53
2023-05-19T03:39:11.331Z,48.35
2023-05-19T03:41:38.453Z,48.13
2023-05-19T03:44:05.602Z,47.94
2023-05-19T03:46:32.669Z,48.08
2023-05-19T03:49:22.802Z,48.17
2023-05-19T03:52:10.024Z,48.10
2023-05-19T03:54:53.233Z,47.88
2023-05-19T03:57:20.311Z,47.92
2023-05-19T03:59:47.810Z,48.21
2023-05-19T04:02:16.169Z,48.04
2023-05-19T04:04:43.740Z,47.98
2023-05-19T04:07:11.916Z,48.07
2023-05-19T04:09:40.336Z,48.29
2023-05-19T04:12:07.772Z,48.08
2023-05-19T04:14:35.100Z,47.98
2023-05-19T04:17:03.516Z,47.73
2023-05-19T04:19:30.739Z,47.60
2023-05-19T04:21:57.759Z,47.52
2023-05-19T04:24:24.914Z,47.80
2023-05-19T04:26:52.356Z,47.88
2023-05-19T04:29:19.794Z,47.69
2023-05-19T04:31:47.108Z,47.61
2023-05-19T04:34:14.130Z,47.59
2023-05-19T04:36:41.861Z,47.57
2023-05-19T04:39:12.341Z,47.70
2023-05-19T04:41:42.169Z,47.64
2023-05-19T04:44:09.659Z,47.70
2023-05-19T04:46:37.498Z,47.67
2023-05-19T04:49:05.372Z,47.75
2023-05-19T04:51:32.612Z,47.45
2023-05-19T04:54:01.745Z,47.48
2023-05-19T04:56:29.106Z,47.61
2023-05-19T04:58:57.733Z,47.52
2023-05-19T05:01:26.560Z,47.49
2023-05-19T05:03:55.555Z,47.49
2023-05-19T05:06:22.836Z,47.39
2023-05-19T05:08:50.222Z,47.32
2023-05-19T05:11:18.325Z,47.26
2023-05-19T05:13:48.172Z,47.30
2023-05-19T05:16:16.007Z,47.17
2023-05-19T05:18:44.777Z,47.33
2023-05-19T05:21:13.855Z,47.18
2023-05-19T05:23:42.955Z,47.24
2023-05-19T05:26:12.340Z,47.21
2023-05-19T05:28:41.567Z,47.12
2023-05-19T05:31:08.683Z,47.17
2023-05-19T05:33:35.933Z,47.17
2023-05-19T05:36:03.000Z,46.99
2023-05-19T05:38:30.380Z,47.06
2023-05-19T05:40:57.789Z,46.95
2023-05-19T05:43:25.327Z,46.76
2023-05-19T05:45:57.475Z,46.91
2023-05-19T05:48:24.904Z,46.81
2023-05-19T05:50:52.828Z,46.65
2023-05-19T05:53:22.364Z,46.54
2023-05-19T05:55:51.848Z,46.81
2023-05-19T05:58:21.451Z,46.76
2023-05-19T06:00:50.408Z,46.76
2023-05-19T06:03:17.888Z,46.77
2023-05-19T06:05:45.636Z,46.64
2023-05-19T06:08:13.581Z,46.60
2023-05-19T06:10:45.101Z,46.62
2023-05-19T06:13:13.882Z,46.44
2023-05-19T06:15:41.429Z,46.44
2023-05-19T06:18:18.682Z,46.37
2023-05-19T06:20:48.263Z,46.17
2023-05-19T06:23:15.322Z,45.92
2023-05-19T06:25:42.433Z,45.55
2023-05-19T06:28:11.093Z,45.76
2023-05-19T06:30:38.364Z,46.02
2023-05-19T06:33:31.599Z,46.51
2023-05-19T06:35:58.684Z,46.50
2023-05-19T06:38:26.371Z,46.39
2023-05-19T06:40:53.413Z,46.10
2023-05-19T06:43:20.689Z,45.54
2023-05-19T06:45:55.486Z,45.03
2023-05-19T06:48:23.345Z,44.93
2023-05-19T06:50:51.069Z,44.51
2023-05-19T06:53:19.749Z,43.81
2023-05-19T06:55:57.994Z,43.39
2023-05-19T06:58:28.227Z,43.19
2023-05-19T07:00:55.943Z,43.22
2023-05-19T07:03:25.094Z,42.41
2023-05-19T07:05:52.323Z,42.28
2023-05-19T07:08:20.563Z,42.18
2023-05-19T07:10:47.565Z,42.23
2023-05-19T07:13:17.122Z,41.46
2023-05-19T07:15:44.321Z,40.35
2023-05-19T07:18:11.469Z,40.28
2023-05-19T07:20:38.836Z,40.18
2023-05-19T07:23:05.966Z,39.60
2023-05-19T07:25:33.567Z,39.50
2023-05-19T07:28:00.808Z,39.20
2023-05-19T07:30:31.317Z,38.05
2023-05-19T07:32:58.696Z,37.66
2023-05-19T07:35:26.479Z,37.30
2023-05-19T07:37:53.585Z,37.41
2023-05-19T07:40:20.628Z,36.26
2023-05-19T07:42:49.782Z,35.21
2023-05-19T07:45:16.887Z,34.89
2023-05-19T07:47:43.949Z,33.61
2023-05-19T07:50:11.010Z,33.92
2023-05-19T07:52:38.073Z,33.50
2023-05-19T07:55:06.509Z,33.30
2023-05-19T07:57:33.582Z,33.14
2023-05-19T08:00:00.623Z,33.16
2023-05-19T08:02:27.811Z,32.72
2023-05-19T08:04:55.166Z,32.71
2023-05-19T08:07:22.411Z,32.52
2023-05-19T08:09:50.060Z,32.92
2023-05-19T08:12:17.756Z,33.09
2023-05-19T08:14:44.784Z,32.48
2023-05-19T08:17:11.879Z,32.46
2023-05-19T08:19:38.941Z,32.81
2023-05-19T08:22:06.112Z,32.45
2023-05-19T08:24:34.178Z,32.55
2023-05-19T08:27:01.497Z,32.62
2023-05-19T08:29:28.571Z,32.51
2023-05-19T08:31:55.864Z,31.86
2023-05-19T08:34:23.101Z,31.40
2023-05-19T08:36:50.573Z,30.81
2023-05-19T08:39:19.853Z,30.66
2023-05-19T08:41:46.899Z,31.38
2023-05-19T08:44:13.850Z,31.78
2023-05-19T08:46:41.008Z,31.99
2023-05-19T08:49:13.821Z,32.15
2023-05-19T08:51:50.355Z,32.07
2023-05-19T08:54:19.390Z,32.35
2023-05-19T08:56:46.783Z,32.46
2023-05-19T08:59:15.318Z,32.04
2023-05-19T09:01:46.597Z,31.70
2023-05-19T09:04:13.785Z,31.57
2023-05-19T09:06:42.545Z,31.45
2023-05-19T09:09:09.731Z,31.77
2023-05-19T09:11:37.915Z,31.88
2023-05-19T09:14:05.919Z,32.04
2023-05-19T09:16:34.267Z,31.91
2023-05-19T09:19:01.677Z,31.90
2023-05-19T09:21:31.968Z,31.86
2023-05-19T09:24:04.156Z,32.15
2023-05-19T09:26:42.082Z,32.39
2023-05-19T09:29:18.522Z,32.11
2023-05-19T09:32:01.850Z,32.08
2023-05-19T09:34:28.982Z,31.76
2023-05-19T09:36:56.057Z,31.95
2023-05-19T09:39:23.628Z,31.70
2023-05-19T09:41:54.449Z,31.47
2023-05-19T09:44:21.472Z,31.56
2023-05-19T09:46:49.786Z,30.98
2023-05-19T09:49:21.212Z,31.37
2023-05-19T09:51:55.781Z,31.16
2023-05-19T09:54:24.012Z,31.07
2023-05-19T09:56:59.243Z,30.91
2023-05-19T09:59:26.521Z,31.05
2023-05-19T10:01:54.848Z,30.78
2023-05-19T10:04:22.977Z,30.65
2023-05-19T10:06:54.435Z,30.56
2023-05-19T10:09:27.277Z,30.74
2023-05-19T10:11:55.641Z,30.79
2023-05-19T10:14:24.977Z,30.73
2023-05-19T10:16:53.097Z,30.80
2023-05-19T10:19:21.355Z,30.80
2023-05-19T10:21:48.756Z,31.33
2023-05-19T10:24:15.906Z,31.62
2023-05-19T10:26:46.705Z,31.29
2023-05-19T10:29:15.731Z,31.49
2023-05-19T10:31:42.796Z,31.73
2023-05-19T10:34:40.811Z,31.32
2023-05-19T10:37:18.113Z,31.09
2023-05-19T10:39:45.731Z,31.06
2023-05-19T10:42:33.089Z,31.06
2023-05-19T10:45:20.411Z,31.44
2023-05-19T10:47:48.104Z,31.26
2023-05-19T10:50:15.273Z,31.35
2023-05-19T10:52:42.425Z,30.92
2023-05-19T10:55:17.853Z,31.07
2023-05-19T10:57:56.978Z,31.00
2023-05-19T11:00:27.861Z,30.52
2023-05-19T11:02:58.259Z,30.44
2023-05-19T11:05:29.725Z,30.51
2023-05-19T11:07:57.280Z,30.14
2023-05-19T11:10:24.727Z,30.02
2023-05-19T11:12:52.363Z,30.02
2023-05-19T11:15:19.671Z,30.35
2023-05-19T11:17:49.155Z,30.53
2023-05-19T11:20:26.868Z,30.62
2023-05-19T11:23:19.002Z,30.34
2023-05-19T11:25:51.495Z,30.38
2023-05-19T11:28:19.974Z,30.47
2023-05-19T11:30:52.165Z,30.98
2023-05-19T11:33:27.431Z,30.47
2023-05-19T11:36:00.902Z,30.53
2023-05-19T11:38:30.401Z,30.68
2023-05-19T11:41:00.055Z,30.72
2023-05-19T11:43:27.166Z,30.84
2023-05-19T11:45:54.843Z,31.52
2023-05-19T11:48:22.734Z,31.91
2023-05-19T11:50:50.237Z,31.89
2023-05-19T11:53:17.667Z,31.74
2023-05-19T11:55:48.410Z,31.42
2023-05-19T11:58:16.514Z,31.40
2023-05-19T12:00:46.263Z,31.32
2023-05-19T12:03:13.638Z,31.65
2023-05-19T12:05:47.370Z,31.66
2023-05-19T12:08:15.133Z,31.86
2023-05-19T12:10:42.166Z,32.22
2023-05-19T12:13:09.977Z,33.06
2023-05-19T12:15:37.932Z,33.74
2023-05-19T12:18:05.060Z,33.60
2023-05-19T12:20:32.794Z,33.84
2023-05-19T12:23:00.475Z,33.94
2023-05-19T12:25:28.700Z,33.36
2023-05-19T12:27:59.878Z,33.11
2023-05-19T12:30:28.499Z,33.38
2023-05-19T12:32:57.866Z,33.66
2023-05-19T12:35:29.532Z,33.86
2023-05-19T12:37:56.571Z,34.03
2023-05-19T12:40:23.651Z,34.04
2023-05-19T12:42:53.508Z,34.27
2023-05-19T12:45:21.594Z,34.34
2023-05-19T12:47:48.891Z,34.30
2023-05-19T12:50:16.399Z,34.17
2023-05-19T12:52:52.382Z,33.79
2023-05-19T12:55:21.132Z,33.67
2023-05-19T12:57:54.959Z,33.49
2023-05-19T13:00:22.885Z,33.81
2023-05-19T13:03:10.247Z,33.74
2023-05-19T13:05:40.187Z,33.53
2023-05-19T13:08:08.476Z,33.76
2023-05-19T13:10:36.433Z,33.49
2023-05-19T13:13:03.548Z,33.44
2023-05-19T13:15:34.598Z,33.60
2023-05-19T13:18:03.539Z,33.70
2023-05-19T13:20:30.961Z,34.23
2023-05-19T13:22:58.259Z,34.49
2023-05-19T13:25:26.012Z,34.26
2023-05-19T13:27:53.149Z,34.28
2023-05-19T13:30:21.182Z,34.71
2023-05-19T13:32:48.350Z,35.34
2023-05-19T13:35:16.023Z,35.23
2023-05-19T13:37:43.167Z,35.42
2023-05-19T13:40:10.963Z,35.56
2023-05-19T13:42:38.188Z,35.98
2023-05-19T13:45:05.646Z,36.55
2023-05-19T13:47:32.882Z,36.48
2023-05-19T13:49:59.996Z,36.70
2023-05-19T13:52:29.078Z,36.48
2023-05-19T13:54:57.540Z,36.90
2023-05-19T13:57:25.725Z,36.53
2023-05-19T14:00:01.597Z,35.72
2023-05-19T14:02:39.939Z,35.75
2023-05-19T14:05:07.666Z,35.61
2023-05-19T14:07:35.412Z,35.85
2023-05-19T14:10:04.152Z,36.05
2023-05-19T14:12:41.303Z,36.34
2023-05-19T14:15:14.765Z,36.20
2023-05-19T14:17:41.946Z,36.24
2023-05-19T14:20:09.826Z,35.94
2023-05-19T14:22:36.868Z,35.62
2023-05-19T14:25:04.167Z,35.29
2023-05-19T14:27:31.268Z,34.96
2023-05-19T14:29:58.348Z,34.35
2023-05-19T14:32:28.620Z,34.06
2023-05-19T14:34:57.206Z,33.72
2023-05-19T14:37:27.782Z,33.55
2023-05-19T14:39:55.237Z,33.05
2023-05-19T14:42:24.004Z,32.57
2023-05-19T14:44:51.137Z,32.39
2023-05-19T14:47:18.264Z,32.49
2023-05-19T14:49:45.361Z,32.54
2023-05-19T14:52:12.340Z,32.64
2023-05-19T14:54:39.466Z,32.91
2023-05-19T14:57:08.290Z,32.90
2023-05-19T14:59:38.804Z,32.75
2023-05-19T15:02:06.209Z,32.51
2023-05-19T15:04:33.869Z,32.39
2023-05-19T15:09:48.121Z,32.15
2023-05-19T15:12:15.142Z,32.26
2023-05-19T15:14:42.196Z,31.86
2023-05-19T15:17:09.357Z,31.75
2023-05-19T15:19:36.416Z,31.65
2023-05-19T15:22:03.475Z,31.09
2023-05-19T15:24:37.226Z,30.93
2023-05-19T15:27:04.506Z,31.41
2023-05-19T15:29:31.544Z,31.47
2023-05-19T15:31:58.622Z,31.39
2023-05-19T15:34:25.629Z,31.32
2023-05-19T15:36:52.705Z,31.24
2023-05-19T15:39:19.708Z,31.35
2023-05-19T15:41:46.920Z,31.25
2023-05-19T15:44:13.968Z,30.80
2023-05-19T15:46:41.346Z,30.54
2023-05-19T15:49:08.594Z,30.65
2023-05-19T15:51:35.795Z,30.88
2023-05-19T15:54:03.371Z,30.93
2023-05-19T15:56:30.672Z,30.64
2023-05-19T15:58:57.723Z,30.86
2023-05-19T16:01:25.259Z,31.07
2023-05-19T16:03:53.939Z,31.09
2023-05-19T16:06:21.670Z,31.15
2023-05-19T16:08:48.727Z,31.43
2023-05-19T16:11:15.900Z,31.71
2023-05-19T16:13:43.046Z,31.84
2023-05-19T16:16:10.106Z,31.95
2023-05-19T16:18:37.268Z,32.18
2023-05-19T16:21:04.556Z,32.17
2023-05-19T16:23:31.596Z,32.02
2023-05-19T16:25:58.686Z,31.47
2023-05-19T16:28:25.799Z,31.34
2023-05-19T16:30:52.820Z,31.80
2023-05-19T16:33:19.851Z,32.28
2023-05-19T16:35:46.949Z,32.56
2023-05-19T16:38:14.013Z,32.76
2023-05-19T16:40:41.050Z,33.30
2023-05-19T16:43:08.149Z,33.77
2023-05-19T16:45:35.184Z,34.62
2023-05-19T16:48:02.347Z,35.82
2023-05-19T16:50:29.625Z,36.74
2023-05-19T16:52:56.634Z,37.53
2023-05-19T16:55:27.001Z,38.61
2023-05-19T16:57:57.219Z,39.73
2023-05-19T17:00:24.914Z,40.49
2023-05-19T17:02:52.040Z,40.89
2023-05-19T17:05:19.507Z,41.24
2023-05-19T17:07:46.712Z,41.68
2023-05-19T17:10:16.755Z,42.17
2023-05-19T17:12:43.782Z,42.83
2023-05-19T17:15:11.227Z,43.30
2023-05-19T17:17:38.423Z,43.60
2023-05-19T17:20:06.599Z,44.01
2023-05-19T17:22:33.616Z,44.41
2023-05-19T17:25:00.622Z,44.89
2023-05-19T17:27:27.684Z,45.37
2023-05-19T17:29:54.728Z,45.84
2023-05-19T17:32:25.924Z,46.03
2023-05-19T17:34:53.236Z,46.35
2023-05-19T17:37:23.630Z,46.59
2023-05-19T17:39:51.208Z,47.06
2023-05-19T17:42:19.564Z,47.60
2023-05-19T17:44:47.156Z,47.98
2023-05-19T17:47:14.390Z,48.42
2023-05-19T17:49:41.777Z,48.79
2023-05-19T17:52:09.518Z,49.17
2023-05-19T17:54:36.898Z,49.48
2023-05-19T17:57:04.259Z,49.72
2023-05-19T17:59:31.537Z,49.84
2023-05-19T18:01:59.237Z,50.04
2023-05-19T18:04:26.654Z,50.43
2023-05-19T18:06:54.737Z,50.64
2023-05-19T18:09:21.828Z,50.78
2023-05-19T18:11:48.902Z,51.09
2023-05-19T18:14:15.968Z,51.39
2023-05-19T18:16:43.861Z,51.57
2023-05-19T18:19:11.206Z,51.87
2023-05-19T18:21:38.443Z,51.95
2023-05-19T18:24:06.307Z,52.23
2023-05-19T18:26:33.759Z,52.22
2023-05-19T18:29:05.385Z,52.54
2023-05-19T18:31:32.511Z,52.74
2023-05-19T18:33:59.676Z,52.77
2023-05-19T18:36:26.791Z,53.03
2023-05-19T18:38:55.265Z,53.28
2023-05-19T18:41:22.449Z,53.31
2023-05-19T18:43:49.528Z,53.41
2023-05-19T18:46:19.962Z,53.50
2023-05-19T18:48:49.128Z,53.76
2023-05-19T18:51:18.755Z,54.13
2023-05-19T18:53:48.804Z,54.21
2023-05-19T18:56:23.439Z,54.48
2023-05-19T18:58:51.136Z,54.56
2023-05-19T19:01:18.359Z,54.79
2023-05-19T19:03:47.241Z,54.99
2023-05-19T19:06:14.288Z,55.10
2023-05-19T19:08:41.456Z,55.32
2023-05-19T19:11:11.423Z,55.42
2023-05-19T19:13:40.074Z,55.59
2023-05-19T19:16:07.437Z,55.75
2023-05-19T19:18:36.542Z,55.79
2023-05-19T19:21:05.969Z,56.12
2023-05-19T19:23:33.403Z,56.16
2023-05-19T19:26:02.490Z,56.27
2023-05-19T19:28:34.247Z,56.53
2023-05-19T19:31:01.284Z,56.61
2023-05-19T19:33:28.335Z,56.79
2023-05-19T19:35:55.662Z,56.72
2023-05-19T19:38:22.731Z,56.88
2023-05-19T19:40:52.489Z,57.05
2023-05-19T19:43:19.654Z,57.08
2023-05-19T19:45:46.712Z,56.99
2023-05-19T19:48:13.826Z,57.01
2023-05-19T19:50:40.916Z,57.11
2023-05-19T19:53:09.102Z,57.18
2023-05-19T19:55:36.079Z,57.21
2023-05-19T19:58:03.169Z,57.41
2023-05-19T20:00:32.029Z,57.46
2023-05-19T20:05:29.263Z,57.98
2023-05-19T20:07:56.394Z,58.15
2023-05-19T20:10:23.456Z,58.14
2023-05-19T20:12:51.507Z,58.31
2023-05-19T20:15:18.724Z,58.41
2023-05-19T20:17:46.013Z,58.45
2023-05-19T20:20:13.494Z,58.52
2023-05-19T20:22:40.661Z,58.61
2023-05-19T20:25:08.116Z,58.63
2023-05-19T20:27:35.262Z,58.67
2023-05-19T20:30:02.315Z,58.93
2023-05-19T20:32:29.449Z,59.00
2023-05-19T20:34:56.825Z,59.00
2023-05-19T20:37:23.954Z,58.99
2023-05-19T20:39:50.961Z,58.99
2023-05-19T20:42:18.050Z,58.92
2023-05-19T20:44:45.286Z,59.05
2023-05-19T20:47:12.314Z,58.97
2023-05-19T20:49:39.377Z,58.91
2023-05-19T20:52:06.645Z,58.74
2023-05-19T20:54:33.736Z,58.79
2023-05-19T20:57:01.434Z,58.78
2023-05-19T20:59:28.457Z,58.82
2023-05-19T21:01:55.568Z,58.75
2023-05-19T21:04:22.762Z,58.68
2023-05-19T21:06:49.849Z,58.86
2023-05-19T21:09:16.986Z,58.90
2023-05-19T21:11:44.230Z,58.91
2023-05-19T21:14:11.214Z,59.09
2023-05-19T21:16:39.089Z,59.12
2023-05-19T21:19:06.847Z,59.34
2023-05-19T21:21:34.111Z,59.31
2023-05-19T21:24:01.164Z,59.44
2023-05-19T21:26:28.194Z,59.53
2023-05-19T21:28:55.228Z,59.59
2023-05-19T21:31:22.309Z,59.60
2023-05-19T21:33:49.563Z,59.71
2023-05-19T21:36:17.190Z,59.64
2023-05-19T21:38:44.244Z,59.77
2023-05-19T21:41:11.340Z,59.69
2023-05-19T21:43:38.376Z,59.65
2023-05-19T21:46:05.523Z,59.67
2023-05-19T21:48:32.603Z,59.63
2023-05-19T21:50:59.608Z,59.70
2023-05-19T21:53:26.616Z,59.74
2023-05-19T21:55:53.913Z,59.80
2023-05-19T21:58:21.113Z,59.85
2023-05-19T22:00:51.903Z,59.83
2023-05-19T22:03:19.651Z,59.83
2023-05-19T22:05:50.628Z,59.76
2023-05-19T22:08:18.052Z,59.84
2023-05-19T22:10:45.168Z,59.87
2023-05-19T22:13:12.800Z,60.07
2023-05-19T22:15:39.870Z,60.18
2023-05-19T22:18:07.059Z,60.29
2023-05-19T22:20:34.698Z,60.31
2023-05-19T22:23:03.253Z,60.42
2023-05-19T22:25:30.571Z,60.63
2023-05-19T22:27:57.729Z,60.63
2023-05-19T22:30:24.794Z,60.73
2023-05-19T22:32:51.893Z,60.94
2023-05-19T22:35:19.298Z,60.94
2023-05-19T22:37:46.332Z,61.11
2023-05-19T22:40:14.676Z,61.17
2023-05-19T22:42:41.663Z,61.19
2023-05-19T22:45:09.478Z,61.30
2023-05-19T22:47:36.868Z,61.35
2023-05-19T22:50:04.280Z,61.50
2023-05-19T22:52:31.218Z,61.65
2023-05-19T22:54:58.667Z,61.62
2023-05-19T22:57:25.694Z,61.66
2023-05-19T22:59:52.727Z,61.61
2023-05-19T23:02:19.965Z,61.70
2023-05-19T23:04:47.004Z,61.79
2023-05-19T23:07:13.953Z,61.80
2023-05-19T23:09:41.004Z,61.88
2023-05-19T23:12:07.988Z,61.92
2023-05-19T23:14:35.047Z,61.90
2023-05-19T23:17:02.156Z,61.97
2023-05-19T23:19:32.030Z,61.95
2023-05-19T23:21:59.035Z,62.08
2023-05-19T23:24:26.063Z,62.06
2023-05-19T23:26:54.833Z,62.05
2023-05-19T23:29:21.862Z,62.20
2023-05-19T23:31:51.198Z,62.13
2023-05-19T23:34:18.353Z,62.11
2023-05-19T23:36:46.806Z,62.17
2023-05-19T23:39:14.428Z,62.14
2023-05-19T23:41:41.583Z,62.46
2023-05-19T23:44:08.585Z,63.23
2023-05-19T23:46:35.812Z,63.63
2023-05-19T23:49:03.032Z,63.82
2023-05-19T23:51:30.137Z,64.10
2023-05-19T23:53:57.222Z,64.08
2023-05-19T23:56:24.232Z,64.18
2023-05-19T23:58:51.740Z,64.25
